createdAt,value
2017-10-29T00:02:19.193Z,10.83
2017-10-29T00:04:46.671Z,12.80
2017-10-29T00:07:14.139Z,14.37
2017-10-29T00:09:41.604Z,16.23
2017-10-29T00:12:09.062Z,13.20
2017-10-29T00:14:36.522Z,12.00
2017-10-29T00:17:03.975Z,17.07
2017-10-29T00:19:31.438Z,9.97
2017-10-29T00:21:58.891Z,12.13
2017-10-29T00:24:26.352Z,16.63
2017-10-29T00:26:53.806Z,11.00
2017-10-29T00:29:21.264Z,9.17
2017-10-29T00:31:48.711Z,12.13
2017-10-29T00:34:16.174Z,8.83
2017-10-29T00:36:43.622Z,11.00
2017-10-29T00:39:11.093Z,8.03
2017-10-29T00:41:38.546Z,9.07
2017-10-29T00:44:06.009Z,12.17
2017-10-29T00:46:33.499Z,15.30
2017-10-29T00:49:01.756Z,9.23
2017-10-29T00:51:29.974Z,12.80
2017-10-29T00:53:57.433Z,10.63
2017-10-29T00:56:24.886Z,12.57
2017-10-29T00:58:52.346Z,13.43
2017-10-29T01:01:19.816Z,15.90
2017-10-29T01:03:47.271Z,9.63
2017-10-29T01:06:14.743Z,11.20
2017-10-29T01:08:42.205Z,11.57
2017-10-29T01:11:09.656Z,12.90
2017-10-29T01:13:37.106Z,9.67
2017-10-29T01:16:04.573Z,9.90
2017-10-29T01:18:32.010Z,10.57
2017-10-29T01:20:59.497Z,6.53
2017-10-29T01:23:26.948Z,12.60
2017-10-29T01:25:54.421Z,7.67
2017-10-29T01:28:21.870Z,9.47
2017-10-29T01:30:49.328Z,6.73
2017-10-29T01:33:16.805Z,11.30
2017-10-29T01:35:45.050Z,12.07
2017-10-29T01:38:12.622Z,11.53
2017-10-29T01:40:40.078Z,13.17
2017-10-29T01:43:07.535Z,9.03
2017-10-29T01:45:34.978Z,7.50
2017-10-29T01:48:02.460Z,10.10
2017-10-29T01:50:29.917Z,12.37
2017-10-29T01:52:57.374Z,8.00
2017-10-29T01:55:24.843Z,12.77
2017-10-29T01:57:53.107Z,11.20
2017-10-29T02:00:20.563Z,6.43
2017-10-29T02:02:48.019Z,8.83
2017-10-29T02:05:15.479Z,15.13
2017-10-29T02:07:42.937Z,12.03
2017-10-29T02:10:11.162Z,10.67
2017-10-29T02:12:38.610Z,11.00
2017-10-29T02:15:06.067Z,11.70
2017-10-29T02:17:33.519Z,11.97
2017-10-29T02:20:01.000Z,8.87
2017-10-29T02:22:28.444Z,8.13
2017-10-29T02:24:55.907Z,10.20
2017-10-29T02:27:23.366Z,10.67
2017-10-29T02:29:50.831Z,13.63
2017-10-29T02:32:18.274Z,10.50
2017-10-29T02:34:45.730Z,9.70
2017-10-29T02:37:13.181Z,7.77
2017-10-29T02:39:40.637Z,9.67
2017-10-29T02:42:08.086Z,11.50
2017-10-29T02:44:35.542Z,6.20
2017-10-29T02:47:02.995Z,8.37
2017-10-29T02:49:30.458Z,8.13
2017-10-29T02:51:57.910Z,13.47
2017-10-29T02:54:25.380Z,10.60
2017-10-29T02:56:52.846Z,8.43
2017-10-29T02:59:20.306Z,7.30
2017-10-29T03:01:47.766Z,9.63
2017-10-29T03:04:15.222Z,10.00
2017-10-29T03:06:42.676Z,9.60
2017-10-29T03:09:10.139Z,13.87
2017-10-29T03:11:37.599Z,8.33
2017-10-29T03:14:05.078Z,10.27
2017-10-29T03:16:33.285Z,10.90
2017-10-29T03:19:01.504Z,7.93
2017-10-29T03:21:28.951Z,9.73
2017-10-29T03:23:56.419Z,12.33
2017-10-29T03:26:23.879Z,8.83
2017-10-29T03:28:51.333Z,10.20
2017-10-29T03:31:18.790Z,11.30
2017-10-29T03:33:46.239Z,14.77
2017-10-29T03:36:13.698Z,6.13
2017-10-29T03:38:41.176Z,11.37
2017-10-29T03:41:08.637Z,11.87
2017-10-29T03:43:36.098Z,11.50
2017-10-29T03:46:03.554Z,11.97
2017-10-29T03:48:31.007Z,9.57
2017-10-29T03:50:58.471Z,9.90
2017-10-29T03:53:25.922Z,16.57
2017-10-29T03:55:53.381Z,10.10
2017-10-29T03:58:20.845Z,10.53
2017-10-29T04:00:48.327Z,24.20
2017-10-29T04:03:15.791Z,14.17
2017-10-29T04:05:43.269Z,13.87
2017-10-29T04:08:10.723Z,17.33
2017-10-29T04:10:38.222Z,20.03
2017-10-29T04:13:06.446Z,17.30
2017-10-29T04:15:34.696Z,18.67
2017-10-29T04:18:02.152Z,14.33
2017-10-29T04:20:29.605Z,10.97
2017-10-29T04:22:57.074Z,16.90
2017-10-29T04:25:24.518Z,19.50
2017-10-29T04:27:51.987Z,12.10
2017-10-29T04:30:19.458Z,13.13
2017-10-29T04:32:47.686Z,14.20
2017-10-29T04:35:15.142Z,15.70
2017-10-29T04:37:42.614Z,14.00
2017-10-29T04:40:10.057Z,19.77
2017-10-29T04:42:37.535Z,12.77
2017-10-29T04:45:04.994Z,11.10
2017-10-29T04:47:32.450Z,18.47
2017-10-29T04:49:59.918Z,18.47
2017-10-29T04:52:27.386Z,15.43
2017-10-29T04:54:54.843Z,16.00
2017-10-29T04:57:22.291Z,17.20
2017-10-29T04:59:49.747Z,12.40
2017-10-29T05:02:17.989Z,11.30
2017-10-29T05:04:45.446Z,15.97
2017-10-29T05:07:12.915Z,13.50
2017-10-29T05:09:40.370Z,20.07
2017-10-29T05:12:07.849Z,13.57
2017-10-29T05:14:35.314Z,20.20
2017-10-29T05:17:02.775Z,13.93
2017-10-29T05:19:31.023Z,21.53
2017-10-29T05:21:58.478Z,18.53
2017-10-29T05:24:25.936Z,17.17
2017-10-29T05:26:53.393Z,15.90
2017-10-29T05:29:20.853Z,18.53
2017-10-29T05:31:48.331Z,11.83
2017-10-29T05:34:15.799Z,19.30
2017-10-29T05:36:44.046Z,14.60
2017-10-29T05:39:11.513Z,14.87
2017-10-29T05:41:38.999Z,16.03
2017-10-29T05:44:06.473Z,14.77
2017-10-29T05:46:33.926Z,19.77
2017-10-29T05:49:01.380Z,14.63
2017-10-29T05:51:28.829Z,22.87
2017-10-29T05:53:57.059Z,16.53
2017-10-29T05:56:24.519Z,18.30
2017-10-29T05:58:51.990Z,15.63
2017-10-29T06:01:19.449Z,18.50
2017-10-29T06:03:46.913Z,16.23
2017-10-29T06:06:14.387Z,16.70
2017-10-29T06:08:42.627Z,11.83
2017-10-29T06:11:10.108Z,18.60
2017-10-29T06:13:37.577Z,10.73
2017-10-29T06:16:05.090Z,14.37
2017-10-29T06:18:32.550Z,16.10
2017-10-29T06:21:00.771Z,15.30
2017-10-29T06:23:28.246Z,21.30
2017-10-29T06:25:55.698Z,9.23
2017-10-29T06:28:23.160Z,17.23
2017-10-29T06:30:50.650Z,14.70
2017-10-29T06:33:18.106Z,15.63
2017-10-29T06:35:45.609Z,17.03
2017-10-29T06:38:13.051Z,15.57
2017-10-29T06:40:41.305Z,17.93
2017-10-29T06:43:08.762Z,14.60
2017-10-29T06:45:36.234Z,11.00
2017-10-29T06:48:04.453Z,14.70
2017-10-29T06:50:31.939Z,14.27
2017-10-29T06:52:59.393Z,14.00
2017-10-29T06:55:26.851Z,27.17
2017-10-29T06:57:54.321Z,14.23
2017-10-29T07:00:21.794Z,14.70
2017-10-29T07:02:50.019Z,16.47
2017-10-29T07:05:17.477Z,19.23
2017-10-29T07:07:44.946Z,17.77
2017-10-29T07:10:12.401Z,17.73
2017-10-29T07:12:39.861Z,18.83
2017-10-29T07:15:07.316Z,15.07
2017-10-29T07:17:34.785Z,15.13
2017-10-29T07:20:02.266Z,24.07
2017-10-29T07:22:29.734Z,14.87
2017-10-29T07:24:57.947Z,11.87
2017-10-29T07:27:25.406Z,21.57
2017-10-29T07:32:26.715Z,12.67
2017-10-29T07:34:54.173Z,12.50
2017-10-29T07:37:21.642Z,12.43
2017-10-29T07:39:49.094Z,9.43
2017-10-29T07:42:16.567Z,19.73
2017-10-29T07:44:44.026Z,16.03
2017-10-29T07:47:11.482Z,10.60
2017-10-29T07:49:38.951Z,14.23
2017-10-29T07:52:06.418Z,18.80
2017-10-29T07:54:33.885Z,16.67
2017-10-29T07:57:01.333Z,17.03
2017-10-29T07:59:28.838Z,22.03
2017-10-29T08:01:56.295Z,17.13
2017-10-29T08:04:23.797Z,12.47
2017-10-29T08:06:52.020Z,20.23
2017-10-29T08:09:19.524Z,13.73
2017-10-29T08:11:46.981Z,18.73
2017-10-29T08:14:14.437Z,18.20
2017-10-29T08:16:41.887Z,19.17
2017-10-29T08:19:09.350Z,14.30
2017-10-29T08:21:36.817Z,20.73
2017-10-29T08:24:05.046Z,18.30
2017-10-29T08:26:32.519Z,15.47
2017-10-29T08:28:59.987Z,23.90
2017-10-29T08:31:28.204Z,15.47
2017-10-29T08:33:55.667Z,12.10
2017-10-29T08:36:23.115Z,16.97
2017-10-29T08:38:50.561Z,17.27
2017-10-29T08:41:18.022Z,14.13
2017-10-29T08:43:46.243Z,20.60
2017-10-29T08:46:13.730Z,8.87
2017-10-29T08:48:41.199Z,16.07
2017-10-29T08:51:08.729Z,11.43
2017-10-29T08:53:36.951Z,13.07
2017-10-29T08:56:05.178Z,16.17
2017-10-29T08:58:32.627Z,12.70
2017-10-29T09:01:00.098Z,17.27
2017-10-29T09:03:27.597Z,12.43
2017-10-29T09:05:55.814Z,13.17
2017-10-29T09:08:23.296Z,11.50
2017-10-29T09:10:50.766Z,11.77
2017-10-29T09:13:18.220Z,9.10
2017-10-29T09:15:45.677Z,12.23
2017-10-29T09:18:13.145Z,12.90
2017-10-29T09:20:41.385Z,11.97
2017-10-29T09:23:08.843Z,11.10
2017-10-29T09:25:36.331Z,14.13
2017-10-29T09:28:03.775Z,8.60
2017-10-29T09:30:31.237Z,13.80
2017-10-29T09:32:58.702Z,11.93
2017-10-29T09:35:26.171Z,11.87
2017-10-29T09:37:54.389Z,12.13
2017-10-29T09:40:21.847Z,10.17
2017-10-29T09:42:49.328Z,11.00
2017-10-29T09:45:16.826Z,7.40
2017-10-29T09:47:44.358Z,7.70
2017-10-29T09:50:11.821Z,13.27
2017-10-29T09:52:39.280Z,12.80
2017-10-29T09:55:06.734Z,7.23
2017-10-29T09:57:34.202Z,12.33
2017-10-29T10:00:01.646Z,16.70
2017-10-29T10:02:29.102Z,16.43
2017-10-29T10:04:56.598Z,16.03
2017-10-29T10:07:24.066Z,15.17
2017-10-29T10:09:52.302Z,13.90
2017-10-29T10:12:19.755Z,13.13
2017-10-29T10:14:48.840Z,11.10
2017-10-29T10:17:17.066Z,17.70
2017-10-29T10:19:44.603Z,11.00
2017-10-29T10:22:12.843Z,10.67
2017-10-29T10:24:40.327Z,14.50
2017-10-29T10:27:08.603Z,10.83
2017-10-29T10:29:36.074Z,16.50
2017-10-29T10:32:04.302Z,15.33
2017-10-29T10:34:32.588Z,14.80
2017-10-29T10:37:00.816Z,15.10
2017-10-29T10:39:28.289Z,20.03
2017-10-29T10:41:55.756Z,19.30
2017-10-29T10:44:23.202Z,33.40
2017-10-29T10:46:51.555Z,22.40
2017-10-29T10:49:19.785Z,27.43
2017-10-29T10:51:47.999Z,23.10
2017-10-29T10:54:15.529Z,29.63
2017-10-29T10:56:43.741Z,32.03
2017-10-29T10:59:11.375Z,24.33
2017-10-29T11:01:38.881Z,19.33
2017-10-29T11:04:06.378Z,26.43
2017-10-29T11:06:34.590Z,24.70
2017-10-29T11:09:02.839Z,17.53
2017-10-29T11:11:30.293Z,29.23
2017-10-29T11:13:57.766Z,25.53
2017-10-29T11:16:26.034Z,34.10
2017-10-29T11:18:53.514Z,56.90
2017-10-29T11:21:21.793Z,82.03
2017-10-29T11:23:50.070Z,116.20
2017-10-29T11:26:18.339Z,225.33
2017-10-29T11:28:46.570Z,307.47
2017-10-29T11:31:14.054Z,337.97
2017-10-29T11:33:41.523Z,375.47
2017-10-29T11:36:10.907Z,423.63
2017-10-29T11:38:38.420Z,418.47
2017-10-29T11:41:05.922Z,443.93
2017-10-29T11:43:33.397Z,473.83
2017-10-29T11:46:01.646Z,492.33
2017-10-29T11:48:29.106Z,485.60
2017-10-29T11:50:56.589Z,495.03
2017-10-29T11:53:24.879Z,497.10
2017-10-29T11:55:52.390Z,494.43
2017-10-29T11:58:19.880Z,491.67
2017-10-29T12:00:47.345Z,480.70
2017-10-29T12:03:15.614Z,479.27
2017-10-29T12:05:43.874Z,483.03
2017-10-29T12:08:11.371Z,453.83
2017-10-29T12:10:39.626Z,428.20
2017-10-29T12:13:07.869Z,397.63
2017-10-29T12:15:36.898Z,269.83
2017-10-29T12:18:04.422Z,209.37
2017-10-29T12:20:32.666Z,170.50
2017-10-29T12:23:00.123Z,151.57
2017-10-29T12:25:27.630Z,154.60
2017-10-29T12:27:55.098Z,137.97
2017-10-29T12:30:22.578Z,132.30
2017-10-29T12:32:50.815Z,131.23
2017-10-29T12:35:18.303Z,138.43
2017-10-29T12:37:46.558Z,127.10
2017-10-29T12:40:14.037Z,124.17
2017-10-29T12:42:42.278Z,129.07
2017-10-29T12:45:09.759Z,122.97
2017-10-29T12:47:37.988Z,130.00
2017-10-29T12:50:05.445Z,118.10
2017-10-29T12:52:32.910Z,110.53
2017-10-29T12:55:00.390Z,115.70
2017-10-29T12:57:27.866Z,115.60
2017-10-29T12:59:56.113Z,111.33
2017-10-29T13:02:23.578Z,103.50
2017-10-29T13:04:51.069Z,111.60
2017-10-29T13:07:19.343Z,98.60
2017-10-29T13:09:47.570Z,111.90
2017-10-29T13:12:15.042Z,98.70
2017-10-29T13:14:42.554Z,93.93
2017-10-29T13:17:10.037Z,95.13
2017-10-29T13:19:37.490Z,81.20
2017-10-29T13:22:04.985Z,73.87
2017-10-29T13:24:32.477Z,66.43
2017-10-29T13:26:59.994Z,68.03
2017-10-29T13:29:27.497Z,52.80
2017-10-29T13:31:55.742Z,47.77
2017-10-29T13:34:23.207Z,48.97
2017-10-29T13:36:50.655Z,48.70
2017-10-29T13:39:18.125Z,48.90
2017-10-29T13:41:46.362Z,40.83
2017-10-29T13:44:13.870Z,43.03
2017-10-29T13:46:43.182Z,40.47
2017-10-29T13:49:11.414Z,51.60
2017-10-29T13:51:38.882Z,48.97
2017-10-29T13:54:06.356Z,44.77
2017-10-29T13:56:34.576Z,48.20
2017-10-29T13:59:02.042Z,43.83
2017-10-29T14:01:29.497Z,45.20
2017-10-29T14:03:56.986Z,43.03
2017-10-29T14:06:24.447Z,48.20
2017-10-29T14:08:52.707Z,49.33
2017-10-29T14:11:20.189Z,44.30
2017-10-29T14:13:48.482Z,47.10
2017-10-29T14:16:16.706Z,44.33
2017-10-29T14:18:44.165Z,41.73
2017-10-29T14:21:11.667Z,44.17
2017-10-29T14:23:39.118Z,39.90
2017-10-29T14:26:07.343Z,39.57
2017-10-29T14:28:34.797Z,39.63
2017-10-29T14:31:04.180Z,43.17
2017-10-29T14:33:31.659Z,41.47
2017-10-29T14:35:59.119Z,40.47
2017-10-29T14:38:26.606Z,42.03
2017-10-29T14:40:54.068Z,35.87
2017-10-29T14:43:21.523Z,33.47
2017-10-29T14:45:48.998Z,32.60
2017-10-29T14:48:16.480Z,38.30
2017-10-29T14:50:43.961Z,35.00
2017-10-29T14:53:11.461Z,35.70
2017-10-29T14:55:38.918Z,34.90
2017-10-29T14:58:07.150Z,34.00
2017-10-29T15:00:34.636Z,34.40
2017-10-29T15:03:02.086Z,41.33
2017-10-29T15:05:29.552Z,31.03
2017-10-29T15:07:57.014Z,32.30
2017-10-29T15:10:24.520Z,32.20
2017-10-29T15:12:51.993Z,33.73
2017-10-29T15:15:19.465Z,30.43
2017-10-29T15:17:46.917Z,35.13
2017-10-29T15:20:14.394Z,38.00
2017-10-29T15:22:41.874Z,27.70
2017-10-29T15:25:10.106Z,23.83
2017-10-29T15:27:37.566Z,27.10
2017-10-29T15:30:05.039Z,37.97
2017-10-29T15:32:32.486Z,28.70
2017-10-29T15:34:59.942Z,29.00
2017-10-29T15:37:27.401Z,28.33
2017-10-29T15:39:54.858Z,28.37
2017-10-29T15:42:22.658Z,28.27
2017-10-29T15:44:50.109Z,27.30
2017-10-29T15:47:17.566Z,45.43
2017-10-29T15:49:45.023Z,34.43
2017-10-29T15:52:12.524Z,33.27
2017-10-29T15:54:39.984Z,26.70
2017-10-29T15:57:07.463Z,25.43
2017-10-29T15:59:34.927Z,26.37
2017-10-29T16:02:02.383Z,29.27
2017-10-29T16:04:29.838Z,25.33
2017-10-29T16:06:57.313Z,26.23
2017-10-29T16:09:24.774Z,22.10
2017-10-29T16:11:52.242Z,24.87
2017-10-29T16:14:19.696Z,25.83
2017-10-29T16:16:47.162Z,23.07
2017-10-29T16:19:14.615Z,23.60
2017-10-29T16:21:42.091Z,19.17
2017-10-29T16:24:10.331Z,26.80
2017-10-29T16:26:37.809Z,23.53
2017-10-29T16:29:06.800Z,16.47
2017-10-29T16:31:34.322Z,26.00
2017-10-29T16:34:01.795Z,20.40
2017-10-29T16:36:30.015Z,21.07
2017-10-29T16:38:57.489Z,20.37
2017-10-29T16:41:24.930Z,20.40
2017-10-29T16:43:52.386Z,25.50
2017-10-29T16:46:19.893Z,21.07
2017-10-29T16:48:48.119Z,20.30
2017-10-29T16:51:16.347Z,18.03
2017-10-29T16:53:43.803Z,17.53
2017-10-29T16:56:11.255Z,19.77
2017-10-29T16:58:38.728Z,21.70
2017-10-29T17:01:06.234Z,22.93
2017-10-29T17:03:33.694Z,13.73
2017-10-29T17:06:01.141Z,22.10
2017-10-29T17:08:29.983Z,16.37
2017-10-29T17:10:57.459Z,22.50
2017-10-29T17:13:24.911Z,17.03
2017-10-29T17:15:52.370Z,22.93
2017-10-29T17:18:19.826Z,14.83
2017-10-29T17:20:47.291Z,24.73
2017-10-29T17:23:14.755Z,11.80
2017-10-29T17:25:42.210Z,18.07
2017-10-29T17:28:09.660Z,16.50
2017-10-29T17:30:37.118Z,19.20
2017-10-29T17:33:04.565Z,17.73
2017-10-29T17:35:32.026Z,16.40
2017-10-29T17:38:00.239Z,19.50
2017-10-29T17:40:27.753Z,21.13
2017-10-29T17:42:55.966Z,16.90
2017-10-29T17:45:24.194Z,15.23
2017-10-29T17:47:51.674Z,19.33
2017-10-29T17:50:19.123Z,14.67
2017-10-29T17:52:47.343Z,15.57
2017-10-29T17:55:14.793Z,18.10
2017-10-29T17:57:43.038Z,14.00
2017-10-29T18:00:10.490Z,18.60
2017-10-29T18:02:37.941Z,20.30
2017-10-29T18:05:05.402Z,15.70
2017-10-29T18:07:32.866Z,20.13
2017-10-29T18:10:00.331Z,15.30
2017-10-29T18:12:27.815Z,17.17
2017-10-29T18:14:56.034Z,17.73
2017-10-29T18:17:23.498Z,15.53
2017-10-29T18:19:50.974Z,16.80
2017-10-29T18:22:18.439Z,16.20
2017-10-29T18:24:45.906Z,17.53
2017-10-29T18:27:13.350Z,11.93
2017-10-29T18:29:40.811Z,16.97
2017-10-29T18:32:08.258Z,14.00
2017-10-29T18:34:35.730Z,14.97
2017-10-29T18:37:03.206Z,14.50
2017-10-29T18:39:31.434Z,17.27
2017-10-29T18:41:58.888Z,15.00
2017-10-29T18:44:26.359Z,15.00
2017-10-29T18:46:53.818Z,18.50
2017-10-29T18:49:21.288Z,16.93
2017-10-29T18:51:48.739Z,10.10
2017-10-29T18:54:16.202Z,14.47
2017-10-29T18:56:43.667Z,16.13
2017-10-29T18:59:11.148Z,14.20
2017-10-29T19:01:38.628Z,14.37
2017-10-29T19:04:06.102Z,12.60
2017-10-29T19:06:33.566Z,13.30
2017-10-29T19:09:01.057Z,14.90
2017-10-29T19:11:28.514Z,14.70
2017-10-29T19:13:56.754Z,12.80
2017-10-29T19:16:24.223Z,18.07
2017-10-29T19:18:51.691Z,13.40
2017-10-29T19:21:19.186Z,15.17
2017-10-29T19:23:47.397Z,20.20
2017-10-29T19:26:14.863Z,11.23
2017-10-29T19:28:42.338Z,15.80
2017-10-29T19:31:09.786Z,21.30
2017-10-29T19:33:38.006Z,9.60
2017-10-29T19:36:06.235Z,20.73
2017-10-29T19:38:33.686Z,12.97
2017-10-29T19:41:01.162Z,13.27
2017-10-29T19:43:28.609Z,15.37
2017-10-29T19:45:56.066Z,12.80
2017-10-29T19:48:23.525Z,8.90
2017-10-29T19:50:50.982Z,9.90
2017-10-29T19:53:18.501Z,16.60
2017-10-29T19:55:46.009Z,18.07
2017-10-29T19:58:13.463Z,13.33
2017-10-29T20:00:40.947Z,18.40
2017-10-29T20:03:08.418Z,17.17
2017-10-29T20:05:35.891Z,17.20
2017-10-29T20:08:03.338Z,17.10
2017-10-29T20:10:30.816Z,14.73
2017-10-29T20:12:58.262Z,20.40
2017-10-29T20:15:25.707Z,13.93
2017-10-29T20:17:53.166Z,15.80
2017-10-29T20:20:20.626Z,18.30
2017-10-29T20:22:48.086Z,13.47
2017-10-29T20:25:15.538Z,13.77
2017-10-29T20:27:44.599Z,15.93
2017-10-29T20:30:12.250Z,16.40
2017-10-29T20:32:39.705Z,23.33
2017-10-29T20:35:07.155Z,14.73
2017-10-29T20:37:34.643Z,12.57
2017-10-29T20:40:02.103Z,12.50
2017-10-29T20:42:30.343Z,13.93
2017-10-29T20:44:57.811Z,13.03
2017-10-29T20:47:25.286Z,16.30
2017-10-29T20:52:26.696Z,16.63
2017-10-29T20:54:54.149Z,17.20
2017-10-29T20:57:22.522Z,14.40
2017-10-29T20:59:49.974Z,17.90
2017-10-29T21:02:19.318Z,25.17
2017-10-29T21:04:46.779Z,24.07
2017-10-29T21:07:14.254Z,16.63
2017-10-29T21:09:41.738Z,18.23
2017-10-29T21:12:09.959Z,18.40
2017-10-29T21:14:37.418Z,17.97
2017-10-29T21:17:04.904Z,14.97
2017-10-29T21:19:32.362Z,23.90
2017-10-29T21:22:01.326Z,33.77
2017-10-29T21:24:29.465Z,25.97
2017-10-29T21:26:57.692Z,24.30
2017-10-29T21:29:25.151Z,22.00
2017-10-29T21:31:52.630Z,20.43
2017-10-29T21:34:20.077Z,26.13
2017-10-29T21:36:47.526Z,20.20
2017-10-29T21:39:15.751Z,19.03
2017-10-29T21:41:43.207Z,27.83
2017-10-29T21:44:10.662Z,22.43
2017-10-29T21:46:38.113Z,19.40
2017-10-29T21:49:05.570Z,14.93
2017-10-29T21:51:33.022Z,14.40
2017-10-29T21:54:00.470Z,19.37
2017-10-29T21:56:28.695Z,13.80
2017-10-29T21:58:56.916Z,12.07
2017-10-29T22:01:24.366Z,11.03
2017-10-29T22:03:51.822Z,11.50
2017-10-29T22:06:20.035Z,13.83
2017-10-29T22:08:47.514Z,17.33
2017-10-29T22:11:14.977Z,11.13
2017-10-29T22:13:42.428Z,13.90
2017-10-29T22:16:09.891Z,14.27
2017-10-29T22:18:37.343Z,15.10
2017-10-29T22:21:04.804Z,12.50
2017-10-29T22:23:32.266Z,11.20
2017-10-29T22:25:59.742Z,20.53
2017-10-29T22:28:27.187Z,20.13
2017-10-29T22:30:54.655Z,16.10
2017-10-29T22:33:22.101Z,20.37
2017-10-29T22:35:49.566Z,16.07
2017-10-29T22:38:17.024Z,14.30
2017-10-29T22:40:44.485Z,16.03
2017-10-29T22:43:11.945Z,10.30
2017-10-29T22:45:39.414Z,6.63
2017-10-29T22:48:06.859Z,9.07
2017-10-29T22:50:37.868Z,18.43
2017-10-29T22:53:05.328Z,16.60
2017-10-29T22:55:32.790Z,11.27
2017-10-29T22:58:00.254Z,13.83
2017-10-29T23:00:27.703Z,13.10
2017-10-29T23:02:55.175Z,12.77
2017-10-29T23:05:34.446Z,12.57
2017-10-29T23:08:09.834Z,11.20
2017-10-29T23:10:37.287Z,14.70
2017-10-29T23:13:04.730Z,7.97
2017-10-29T23:15:32.171Z,18.17
2017-10-29T23:17:59.621Z,10.00
2017-10-29T23:20:27.851Z,9.17
2017-10-29T23:22:55.319Z,11.13
2017-10-29T23:25:22.773Z,9.40
2017-10-29T23:27:50.242Z,11.23
2017-10-29T23:30:17.694Z,8.50
2017-10-29T23:32:45.162Z,10.07
2017-10-29T23:35:12.601Z,8.33
2017-10-29T23:37:40.071Z,9.60
2017-10-29T23:40:07.517Z,11.53
2017-10-29T23:42:34.982Z,10.23
2017-10-29T23:45:02.439Z,15.40
2017-10-29T23:47:29.898Z,8.50
2017-10-29T23:49:57.355Z,10.60
2017-10-29T23:52:24.818Z,5.90
2017-10-29T23:54:52.274Z,7.90
2017-10-29T23:57:19.734Z,5.87
2017-10-29T23:59:47.214Z,4.87
